Time;durP1;ratioP1;P1;durP2;ratioP2;P2;SDS_P1;SDS_P2;PMS_P1;PMS_P2;Temp;Humidity;BMP_temperature;BMP_pressure;BME280_temperature;BME280_humidity;BME280_pressure;Samples;Min_cycle;Max_cycle;Signal;HPM_P1;HPM_P2
2022/02/11 00:09:12;;;;;;;25.68;20.40;;;;;;;2.43;79.69;100456.88;1697952;83;20994;-72
2022/02/11 00:11:40;;;;;;;27.25;21.23;;;;;;;2.44;79.75;100465.08;1706850;83;21046;-72
2022/02/11 00:14:09;;;;;;;27.75;20.70;;;;;;;2.46;79.77;100475.83;1703909;83;20979;-72
2022/02/11 00:16:38;;;;;;;23.70;18.60;;;;;;;2.47;79.74;100478.81;1695612;83;21085;-72
2022/02/11 00:19:06;;;;;;;25.35;21.12;;;;;;;2.48;79.69;100485.72;1675401;83;21841;-72
2022/02/11 00:21:33;;;;;;;25.17;19.42;;;;;;;2.40;79.59;100483.91;1711969;83;21022;-72
2022/02/11 00:24:00;;;;;;;22.90;19.02;;;;;;;2.37;79.61;100486.66;1705521;83;21553;-72
2022/02/11 00:26:36;;;;;;;28.12;21.68;;;;;;;2.37;79.63;100492.33;1703391;83;22219;-72
2022/02/11 00:34:44;;;;;;;26.57;20.62;;;;;;;2.35;79.61;100471.55;1633548;87;21120;-72
2022/02/11 00:37:13;;;;;;;32.03;23.65;;;;;;;2.34;79.64;100471.16;1624272;87;21080;-73
2022/02/11 01:06:09;;;;;;;30.68;23.70;;;;;;;2.25;79.89;100459.83;1727290;81;20960;-72
2022/02/11 01:08:39;;;;;;;32.95;24.90;;;;;;;2.26;79.89;100450.64;1740746;81;20985;-72
2022/02/11 01:11:05;;;;;;;30.20;23.35;;;;;;;2.29;79.90;100444.44;1756630;81;22507;-71
2022/02/11 01:13:32;;;;;;;31.17;23.62;;;;;;;2.31;79.94;100437.39;1739665;81;21408;-72
2022/02/11 01:16:06;;;;;;;33.90;24.25;;;;;;;2.36;79.94;100439.34;1731991;81;21048;-72
2022/02/11 01:18:26;;;;;;;29.65;23.55;;;;;;;2.37;79.91;100437.13;1743640;81;21039;-72
2022/02/11 01:21:04;;;;;;;31.80;23.52;;;;;;;2.40;79.90;100436.14;1728349;81;20956;-72
2022/02/11 01:23:54;;;;;;;29.05;23.42;;;;;;;2.42;79.86;100433.87;1746464;81;22647;-72
2022/02/11 01:26:23;;;;;;;32.13;23.70;;;;;;;2.44;79.85;100431.19;1747609;81;21562;-71
2022/02/11 01:29:12;;;;;;;31.30;23.62;;;;;;;2.45;79.83;100424.60;1734173;81;21390;-71
2022/02/11 01:31:47;;;;;;;29.20;23.15;;;;;;;2.48;79.81;100421.00;1748019;81;21408;-71
2022/02/11 01:36:43;;;;;;;28.83;22.25;;;;;;;2.49;79.84;100424.00;1731042;81;21824;-71
2022/02/11 01:39:39;;;;;;;29.50;22.98;;;;;;;2.51;79.82;100420.86;1732790;80;21012;-72
2022/02/11 01:57:13;;;;;;;25.20;20.23;;;;;;;2.64;79.75;100392.48;1750521;81;21012;-70
2022/02/11 02:00:12;;;;;;;25.95;20.08;;;;;;;2.65;79.74;100387.65;1732680;81;21037;-71
2022/02/11 02:16:07;;;;;;;23.92;18.55;;;;;;;2.69;79.83;100384.81;1741225;81;21808;-72
2022/02/11 02:32:13;;;;;;;22.62;17.85;;;;;;;2.73;80.00;100386.37;1745567;81;21053;-71
2022/02/11 02:34:09;;;;;;;21.45;16.15;;;;;;;2.72;80.00;100378.17;1738453;81;21412;-72
2022/02/11 02:58:17;;;;;;;23.40;18.77;;;;;;;2.63;79.90;100377.30;1736738;81;20996;-71
2022/02/11 03:14:57;;;;;;;23.12;18.55;;;;;;;2.53;79.84;100366.45;1748746;81;21044;-70
2022/02/11 03:49:43;;;;;;;19.60;16.10;;;;;;;2.50;79.99;100324.01;1723976;81;21831;-71
2022/02/11 03:52:18;;;;;;;19.32;15.85;;;;;;;2.50;80.00;100327.45;1747063;80;20952;-71
2022/02/11 04:27:54;;;;;;;17.80;14.23;;;;;;;2.50;80.08;100275.31;1744673;81;21416;-71
2022/02/11 04:56:24;;;;;;;18.92;15.00;;;;;;;2.59;79.75;100259.23;1723125;81;21758;-72
2022/02/11 05:01:40;;;;;;;19.50;14.20;;;;;;;2.59;79.71;100262.30;1738905;81;20952;-72
2022/02/11 05:04:05;;;;;;;17.12;14.25;;;;;;;2.58;79.69;100261.46;1738547;81;20969;-71
2022/02/11 05:06:31;;;;;;;19.98;14.78;;;;;;;2.58;79.62;100259.31;1729143;81;21467;-71
2022/02/11 05:09:02;;;;;;;16.70;14.13;;;;;;;2.55;79.62;100259.02;1739988;81;21778;-72
2022/02/11 05:11:27;;;;;;;18.12;15.03;;;;;;;2.55;79.61;100256.86;1740698;81;20941;-72
2022/02/11 05:13:53;;;;;;;17.70;14.73;;;;;;;2.53;79.58;100256.10;1739555;80;20952;-71
2022/02/11 05:16:20;;;;;;;17.82;14.65;;;;;;;2.53;79.58;100250.89;1744671;81;21028;-71
2022/02/11 05:18:47;;;;;;;17.65;14.53;;;;;;;2.51;79.60;100252.27;1741079;81;21075;-71
2022/02/11 05:21:13;;;;;;;15.85;13.48;;;;;;;2.51;79.58;100251.39;1747664;81;21809;-73
2022/02/11 05:23:40;;;;;;;17.23;13.98;;;;;;;2.50;79.57;100254.92;1739006;81;21008;-71
2022/02/11 05:26:06;;;;;;;16.97;14.47;;;;;;;2.51;79.61;100257.91;1744928;81;21019;-70
2022/02/11 05:28:33;;;;;;;17.73;14.25;;;;;;;2.53;79.59;100262.16;1748649;81;21503;-71
2022/02/11 05:31:00;;;;;;;17.32;12.98;;;;;;;2.55;79.58;100264.69;1743003;81;21457;-70
2022/02/11 05:33:28;;;;;;;18.27;14.53;;;;;;;2.57;79.54;100269.36;1739119;81;22475;-71
2022/02/11 05:35:55;;;;;;;15.95;13.62;;;;;;;2.57;79.53;100270.66;1732629;81;21012;-69
2022/02/11 05:38:21;;;;;;;17.52;14.00;;;;;;;2.58;79.52;100265.83;1743284;81;21036;-72
2022/02/11 05:40:47;;;;;;;15.65;13.58;;;;;;;2.58;79.49;100260.16;1749675;81;20992;-69
2022/02/11 05:43:14;;;;;;;19.52;16.25;;;;;;;2.57;79.47;100262.38;1754607;81;21020;-73
2022/02/11 05:45:40;;;;;;;19.25;16.70;;;;;;;2.57;79.47;100262.38;1734768;81;21854;-72
2022/02/11 05:48:07;;;;;;;21.23;18.05;;;;;;;2.57;79.47;100261.54;1731603;83;21035;-72
2022/02/11 05:50:33;;;;;;;18.87;14.87;;;;;;;2.56;79.49;100259.39;1717859;81;22118;-71
2022/02/11 05:52:59;;;;;;;15.98;13.53;;;;;;;2.58;79.49;100258.02;1737614;81;21052;-71
2022/02/11 05:55:26;;;;;;;16.73;14.40;;;;;;;2.59;79.47;100266.22;1733587;81;21001;-74
2022/02/11 05:57:53;;;;;;;16.05;13.85;;;;;;;2.58;79.44;100265.38;1727571;81;21816;-75
2022/02/11 06:00:20;;;;;;;17.92;14.40;;;;;;;2.59;79.43;100264.91;1742986;80;21031;-71
2022/02/11 06:02:47;;;;;;;17.40;14.75;;;;;;;2.60;79.42;100263.98;1737606;81;21039;-72
2022/02/11 06:05:16;;;;;;;23.32;18.27;;;;;;;2.64;79.44;100263.41;1751648;81;21031;-72
2022/02/11 06:07:44;;;;;;;22.07;17.32;;;;;;;2.66;79.41;100257.19;1749917;81;21040;-72
2022/02/11 06:10:11;;;;;;;22.40;17.12;;;;;;;2.68;79.38;100257.95;1750368;81;21824;-72
2022/02/11 06:12:38;;;;;;;39.42;27.50;;;;;;;2.69;79.35;100260.94;1740509;81;21539;-73
2022/02/11 06:15:07;;;;;;;35.63;24.70;;;;;;;2.70;79.34;100259.17;1738692;81;20973;-71
2022/02/11 06:17:34;;;;;;;32.08;22.17;;;;;;;2.72;79.31;100259.97;1710423;81;20988;-71
2022/02/11 06:20:02;;;;;;;25.08;19.15;;;;;;;2.71;79.31;100257.82;1756074;81;21004;-71
2022/02/11 06:22:29;;;;;;;20.43;15.55;;;;;;;2.73;79.35;100259.05;1753820;81;22490;-71
2022/02/11 06:24:56;;;;;;;18.90;15.32;;;;;;;2.73;79.36;100249.45;1745149;81;20954;-73
2022/02/11 06:27:22;;;;;;;18.65;14.50;;;;;;;2.75;79.34;100249.38;1728880;81;21059;-73
2022/02/11 06:29:48;;;;;;;18.82;15.90;;;;;;;2.75;79.35;100245.00;1744640;81;20966;-73
2022/02/11 06:32:15;;;;;;;34.40;23.22;;;;;;;2.76;79.36;100251.06;1748364;81;20957;-73
2022/02/11 06:34:41;;;;;;;38.88;25.08;;;;;;;2.75;79.38;100242.39;1737351;81;21783;-72
2022/02/11 06:37:07;;;;;;;26.20;18.10;;;;;;;2.78;79.38;100237.48;1732892;81;20984;-72
2022/02/11 06:39:34;;;;;;;22.05;17.73;;;;;;;2.82;79.39;100242.95;1748479;81;21400;-74
2022/02/11 06:42:01;;;;;;;19.32;15.75;;;;;;;2.84;79.36;100241.94;1739751;81;20996;-71
2022/02/11 06:44:28;;;;;;;20.72;15.53;;;;;;;2.85;79.35;100235.80;1745656;81;21367;-71
2022/02/11 06:46:54;;;;;;;18.30;14.68;;;;;;;2.87;79.31;100227.43;1756951;81;22448;-71
2022/02/11 06:49:23;;;;;;;18.87;14.35;;;;;;;2.91;79.31;100222.92;1756970;80;21617;-71
2022/02/11 06:51:49;;;;;;;19.70;15.43;;;;;;;2.94;79.28;100224.53;1751859;81;21554;-72
2022/02/11 06:54:15;;;;;;;18.87;15.20;;;;;;;2.95;79.24;100219.23;1745078;81;21338;-71
2022/02/11 06:56:42;;;;;;;18.82;15.00;;;;;;;2.97;79.24;100217.38;1752029;81;21020;-70
2022/02/11 06:59:08;;;;;;;19.45;15.43;;;;;;;3.01;79.28;100216.32;1741320;81;21412;-70
2022/02/11 07:01:35;;;;;;;19.73;14.53;;;;;;;3.08;79.33;100218.13;1749180;81;20953;-70
2022/02/11 07:04:03;;;;;;;20.02;14.73;;;;;;;3.14;79.30;100209.55;1728643;81;21027;-69
2022/02/11 07:06:29;;;;;;;19.57;14.80;;;;;;;3.22;79.25;100213.53;1720069;81;21557;-72
2022/02/11 07:08:55;;;;;;;21.10;16.67;;;;;;;3.28;79.18;100211.89;1745271;81;21452;-73
2022/02/11 07:11:22;;;;;;;22.40;16.17;;;;;;;3.34;79.14;100210.28;1689060;84;21827;-73
2022/02/11 07:13:48;;;;;;;18.25;14.68;;;;;;;3.39;79.07;100206.98;1713561;83;21003;-71
2022/02/11 07:16:17;;;;;;;19.15;14.60;;;;;;;3.47;79.02;100203.48;1715892;82;20967;-71
2022/02/11 07:18:45;;;;;;;18.12;14.07;;;;;;;3.53;78.95;100203.16;1706175;83;21082;-72
2022/02/11 07:21:12;;;;;;;17.98;14.00;;;;;;;3.62;78.91;100205.75;1693715;84;21029;-72
2022/02/11 07:23:41;;;;;;;16.25;13.20;;;;;;;3.69;78.75;100210.58;1695943;83;22842;-72
2022/02/11 07:26:08;;;;;;;15.75;12.58;;;;;;;3.74;78.60;100205.09;1702337;82;20982;-72
2022/02/11 07:28:35;;;;;;;18.62;14.43;;;;;;;3.81;78.52;100205.14;1708192;83;20983;-72
2022/02/11 07:31:03;;;;;;;16.57;13.53;;;;;;;3.89;78.36;100204.27;1699073;83;21034;-71
2022/02/11 07:33:31;;;;;;;15.90;13.30;;;;;;;3.97;78.25;100199.47;1697811;83;21113;-72
2022/02/11 07:35:57;;;;;;;16.75;12.98;;;;;;;4.06;78.04;100199.44;1704448;81;21800;-70
2022/02/11 07:38:24;;;;;;;17.20;12.88;;;;;;;4.16;77.77;100195.84;1672983;84;21019;-70
2022/02/11 07:40:51;;;;;;;14.75;12.58;;;;;;;4.22;77.54;100196.80;1698803;83;21062;-70
2022/02/11 07:43:17;;;;;;;19.30;13.85;;;;;;;4.30;77.28;100186.75;1691857;84;20983;-70
2022/02/11 07:45:44;;;;;;;16.25;12.88;;;;;;;4.37;77.03;100193.80;1704126;83;21589;-71
2022/02/11 07:48:10;;;;;;;20.10;15.65;;;;;;;4.44;76.75;100192.48;1703671;83;22635;-74
2022/02/11 07:50:39;;;;;;;17.80;14.55;;;;;;;4.51;76.51;100184.68;1676888;83;20982;-72
2022/02/11 07:53:05;;;;;;;17.35;13.90;;;;;;;4.57;76.36;100179.11;1695072;83;20995;-75
2022/02/11 07:55:33;;;;;;;17.27;13.10;;;;;;;4.66;76.19;100178.58;1700773;83;21490;-74
2022/02/11 07:58:00;;;;;;;17.23;13.15;;;;;;;4.77;76.08;100172.72;1700801;83;21069;-69
2022/02/11 08:00:27;;;;;;;16.00;11.93;;;;;;;4.88;75.84;100178.16;1705665;83;21823;-70
2022/02/11 08:02:54;;;;;;;17.87;13.43;;;;;;;4.99;75.67;100174.44;1704840;83;21485;-71
2022/02/11 08:05:20;;;;;;;15.85;13.18;;;;;;;5.09;75.23;100166.88;1669931;83;21488;-72
2022/02/11 08:07:47;;;;;;;14.65;12.75;;;;;;;5.17;74.80;100170.72;1699673;83;20998;-76
2022/02/11 08:10:14;;;;;;;17.23;13.22;;;;;;;5.25;74.47;100169.42;1693047;83;21050;-68
2022/02/11 08:12:40;;;;;;;17.10;13.10;;;;;;;5.34;74.10;100171.48;1714319;83;21802;-69
2022/02/11 08:15:09;;;;;;;18.48;13.15;;;;;;;5.42;73.98;100170.55;1702070;83;21315;-69
2022/02/11 08:17:36;;;;;;;15.45;12.10;;;;;;;5.53;73.68;100173.82;1661272;85;21027;-68
2022/02/11 08:20:05;;;;;;;15.60;12.45;;;;;;;5.63;73.57;100169.69;1675783;84;21133;-69
2022/02/11 08:22:33;;;;;;;16.67;12.40;;;;;;;5.74;73.12;100172.48;1691746;84;21087;-72
2022/02/11 08:24:59;;;;;;;16.97;13.32;;;;;;;5.82;72.83;100171.53;1707540;84;21812;-70
2022/02/11 08:27:26;;;;;;;15.18;12.25;;;;;;;5.89;72.41;100173.31;1698485;83;21553;-69
2022/02/11 08:29:52;;;;;;;15.08;12.68;;;;;;;5.97;72.32;100174.98;1689610;84;21493;-69
2022/02/11 08:32:21;;;;;;;18.95;13.00;;;;;;;6.06;72.27;100172.25;1711030;83;21477;-69
2022/02/11 08:34:47;;;;;;;15.83;12.70;;;;;;;6.13;71.77;100177.01;1683781;84;21003;-71
2022/02/11 08:37:13;;;;;;;17.73;12.40;;;;;;;6.18;71.45;100174.11;1684009;84;21793;-70
2022/02/11 08:39:41;;;;;;;16.67;12.43;;;;;;;6.22;71.31;100180.35;1693585;82;21146;-72
2022/02/11 08:42:09;;;;;;;15.03;12.47;;;;;;;6.29;71.29;100174.25;1696630;84;21054;-71
2022/02/11 08:44:35;;;;;;;16.50;11.45;;;;;;;6.37;71.06;100173.29;1696808;84;21154;-71
2022/02/11 08:47:02;;;;;;;15.55;11.75;;;;;;;6.47;70.96;100174.37;1688680;84;21114;-69
2022/02/11 08:49:29;;;;;;;13.93;11.50;;;;;;;6.59;70.94;100172.23;1699175;84;21847;-71
2022/02/11 08:51:56;;;;;;;17.10;11.60;;;;;;;6.74;70.85;100169.52;1697252;84;21035;-68
2022/02/11 08:54:22;;;;;;;16.12;12.63;;;;;;;6.86;70.28;100164.31;1682219;84;21502;-69
2022/02/11 08:56:49;;;;;;;15.75;11.12;;;;;;;6.94;69.93;100162.45;1694773;84;21510;-71
2022/02/11 08:59:16;;;;;;;15.50;11.70;;;;;;;6.99;69.74;100155.13;1700112;84;21048;-70
2022/02/11 09:01:43;;;;;;;14.68;10.82;;;;;;;7.07;69.45;100161.17;1688280;84;21805;-71
2022/02/11 09:04:10;;;;;;;14.03;11.93;;;;;;;7.11;69.18;100158.22;1694234;84;21525;-73
2022/02/11 09:06:37;;;;;;;14.87;10.93;;;;;;;7.18;69.01;100150.30;1687349;84;21007;-75
2022/02/11 09:09:04;;;;;;;14.98;10.25;;;;;;;7.27;68.75;100151.45;1690543;84;21109;-72
2022/02/11 09:11:32;;;;;;;14.85;11.73;;;;;;;7.38;68.59;100143.66;1682473;84;21016;-73
2022/02/11 09:13:58;;;;;;;12.68;9.00;;;;;;;7.56;68.28;100144.16;1694790;82;22242;-76
2022/02/11 09:16:25;;;;;;;12.20;8.48;;;;;;;7.77;67.74;100153.63;1687870;84;20982;-73
2022/02/11 09:18:51;;;;;;;11.78;8.35;;;;;;;7.95;66.79;100151.00;1683844;83;21047;-72
2022/02/11 09:21:18;;;;;;;9.53;7.33;;;;;;;8.09;66.49;100146.52;1699311;83;20994;-72
2022/02/11 09:23:45;;;;;;;10.45;7.28;;;;;;;8.24;65.68;100147.56;1717057;83;21129;-74
2022/02/11 09:26:11;;;;;;;9.40;6.97;;;;;;;8.42;63.82;100150.67;1665487;83;22798;-72
2022/02/11 09:28:38;;;;;;;8.18;5.80;;;;;;;8.61;62.15;100151.46;1712622;83;20979;-72
2022/02/11 09:31:04;;;;;;;9.78;6.97;;;;;;;8.75;60.97;100151.25;1701360;81;21053;-74
2022/02/11 09:33:33;;;;;;;10.35;6.65;;;;;;;8.85;60.29;100146.96;1711575;83;21591;-71
2022/02/11 09:36:00;;;;;;;9.35;6.20;;;;;;;8.92;59.71;100151.30;1711313;83;21085;-73
2022/02/11 09:38:26;;;;;;;10.82;6.83;;;;;;;9.01;58.42;100151.91;1712091;83;22172;-75
2022/02/11 09:40:53;;;;;;;9.50;7.15;;;;;;;9.12;58.60;100150.61;1716787;83;21034;-74
2022/02/11 09:43:23;;;;;;;9.60;6.60;;;;;;;9.27;58.15;100139.86;1707963;82;21110;-75
2022/02/11 09:45:51;;;;;;;10.25;7.10;;;;;;;9.43;58.08;100138.52;1665421;83;21557;-74
2022/02/11 09:48:20;;;;;;;10.58;7.03;;;;;;;9.57;57.43;100140.09;1678731;83;21124;-74
2022/02/11 09:50:49;;;;;;;12.47;8.30;;;;;;;9.66;56.56;100135.41;1701891;83;22239;-72
2022/02/11 09:53:15;;;;;;;10.55;7.95;;;;;;;9.67;56.00;100119.94;1703878;83;21437;-74
2022/02/11 09:55:43;;;;;;;11.97;7.53;;;;;;;9.64;55.72;100129.39;1719043;83;21026;-75
2022/02/11 09:58:13;;;;;;;10.50;8.18;;;;;;;9.58;55.82;100125.95;1701773;83;20995;-76
2022/02/11 10:00:44;;;;;;;10.80;7.62;;;;;;;9.58;55.73;100117.20;1701593;83;21078;-72
2022/02/11 10:03:23;;;;;;;10.28;7.15;;;;;;;9.66;55.77;100120.91;1693210;83;21603;-71
2022/02/11 10:05:57;;;;;;;11.45;8.05;;;;;;;9.76;55.66;100106.50;1695718;83;21532;-73
2022/02/11 10:08:30;;;;;;;8.50;7.20;;;;;;;9.92;54.90;100107.41;1669711;83;21034;-71
2022/02/11 10:10:58;;;;;;;10.78;7.60;;;;;;;10.10;54.91;100093.20;1713788;83;21047;-73
2022/02/11 10:13:30;;;;;;;8.08;5.65;;;;;;;10.32;54.66;100090.50;1686300;84;21007;-73
2022/02/11 10:15:59;;;;;;;7.67;5.72;;;;;;;10.50;51.71;100089.45;1702531;82;21787;-72
2022/02/11 10:18:31;;;;;;;8.00;6.08;;;;;;;10.60;52.03;100089.03;1690587;82;21001;-72
2022/02/11 10:21:02;;;;;;;7.30;5.28;;;;;;;10.59;51.22;100086.88;1699790;83;20968;-74
2022/02/11 10:23:40;;;;;;;7.00;5.42;;;;;;;10.50;51.19;100081.05;1675148;83;21012;-72
2022/02/11 10:26:15;;;;;;;8.35;5.20;;;;;;;10.37;51.27;100082.21;1689447;84;21076;-71
2022/02/11 10:28:51;;;;;;;6.47;4.97;;;;;;;10.22;51.81;100078.54;1698610;83;21864;-72
2022/02/11 10:31:30;;;;;;;9.25;5.55;;;;;;;10.11;51.66;100077.23;1665636;84;21448;-73
2022/02/11 10:34:10;;;;;;;7.60;5.28;;;;;;;9.99;51.78;100074.30;1683873;85;21012;-70
2022/02/11 10:36:52;;;;;;;8.23;5.75;;;;;;;9.91;52.10;100075.39;1688947;83;21005;-70
2022/02/11 10:39:27;;;;;;;8.03;5.90;;;;;;;9.86;52.73;100065.23;1678215;84;21139;-70
2022/02/11 10:42:12;;;;;;;9.28;6.58;;;;;;;9.85;52.99;100081.19;1666524;84;21852;-72
2022/02/11 10:44:39;;;;;;;8.88;6.87;;;;;;;9.84;53.29;100084.76;1677604;84;21084;-73
2022/02/11 10:47:14;;;;;;;10.05;7.28;;;;;;;9.83;52.96;100071.22;1682672;84;21072;-72
2022/02/11 10:49:43;;;;;;;15.08;8.48;;;;;;;9.82;53.10;100075.66;1680043;84;21061;-72
2022/02/11 10:52:22;;;;;;;11.73;7.95;;;;;;;9.78;53.51;100070.77;1685565;84;21104;-72
2022/02/11 10:54:52;;;;;;;12.03;8.05;;;;;;;9.74;53.44;100070.16;1679259;84;21827;-72
2022/02/11 10:57:22;;;;;;;10.23;7.37;;;;;;;9.74;53.67;100074.11;1665661;84;20969;-72
2022/02/11 10:59:50;;;;;;;10.43;7.62;;;;;;;9.76;53.57;100074.85;1703262;84;20941;-73
2022/02/11 11:02:19;;;;;;;13.15;8.83;;;;;;;9.78;53.68;100085.27;1686421;83;21429;-73
2022/02/11 11:04:48;;;;;;;10.23;7.42;;;;;;;9.80;53.96;100095.21;1675960;85;20970;-73
2022/02/11 11:07:28;;;;;;;9.63;7.83;;;;;;;9.82;53.79;100094.13;1688834;84;21845;-74
2022/02/11 11:09:56;;;;;;;10.05;7.35;;;;;;;9.83;53.57;100091.00;1697338;84;21065;-72
2022/02/11 11:12:25;;;;;;;8.55;6.12;;;;;;;9.81;53.41;100083.22;1682128;84;21017;-75
2022/02/11 11:14:54;;;;;;;6.37;5.33;;;;;;;9.75;53.27;100090.33;1697938;84;21539;-75
2022/02/11 11:17:20;;;;;;;11.15;6.42;;;;;;;9.71;53.11;100083.12;1683887;84;21115;-76
2022/02/11 11:19:49;;;;;;;10.03;7.50;;;;;;;9.68;53.41;100080.73;1702246;83;22169;-76
2022/02/11 11:22:16;;;;;;;9.78;7.80;;;;;;;9.70;53.75;100082.77;1695436;84;21959;-76
2022/02/11 11:24:55;;;;;;;10.03;7.70;;;;;;;9.72;54.16;100086.59;1677301;84;21076;-75
2022/02/11 11:27:50;;;;;;;8.85;6.65;;;;;;;9.74;54.25;100092.09;1686841;84;21124;-75
2022/02/11 11:30:40;;;;;;;;;;;;;;;9.78;54.14;100091.87;1680550;84;21551;-75
2022/02/11 11:33:12;;;;;;;8.60;6.25;;;;;;;9.79;53.72;100097.50;1681135;84;21810;-75
2022/02/11 11:35:49;;;;;;;8.15;6.42;;;;;;;9.72;53.18;100092.70;1681064;84;21081;-75
2022/02/11 11:38:21;;;;;;;8.65;6.92;;;;;;;9.69;53.40;100096.08;1687108;84;21049;-75
2022/02/11 11:41:08;;;;;;;8.38;6.85;;;;;;;9.66;53.56;100096.33;1695698;84;21080;-75
2022/02/11 11:43:44;;;;;;;11.55;7.37;;;;;;;9.63;53.51;100091.28;1683314;84;21084;-74
2022/02/11 11:46:23;;;;;;;10.90;7.20;;;;;;;9.57;53.89;100091.31;1698503;83;22658;-77
2022/02/11 11:49:07;;;;;;;11.63;8.95;;;;;;;9.53;54.07;100099.57;1685477;84;21085;-72
2022/02/11 11:51:40;;;;;;;;;;;;;;;9.48;54.45;100093.36;1687662;83;21132;-72
2022/02/11 11:54:21;;;;;;;10.13;6.90;;;;;;;9.42;54.84;100098.63;1701756;83;20448;-73
2022/02/11 11:57:10;;;;;;;10.08;7.70;;;;;;;9.42;54.84;100098.63;1690682;84;21889;-73
2022/02/11 11:59:56;;;;;;;9.70;7.92;;;;;;;9.41;54.88;100102.22;1678095;84;22327;-73
2022/02/11 12:02:35;;;;;;;9.63;7.62;;;;;;;9.41;55.24;100105.34;1663766;85;21037;-73
2022/02/11 12:05:03;;;;;;;10.98;8.53;;;;;;;9.38;55.30;100115.66;1675451;84;21104;-73
2022/02/11 12:07:34;;;;;;;10.88;8.33;;;;;;;9.36;55.59;100122.84;1678011;84;21532;-72
2022/02/11 12:10:09;;;;;;;11.40;8.90;;;;;;;9.34;55.97;100123.91;1651987;85;21064;-73
2022/02/11 12:12:37;;;;;;;10.95;8.85;;;;;;;9.28;56.21;100127.04;1674465;85;21093;-73
2022/02/11 12:15:06;;;;;;;11.90;8.93;;;;;;;9.22;56.53;100125.70;1700828;84;21013;-73
2022/02/11 12:17:34;;;;;;;12.07;8.88;;;;;;;9.16;56.76;100130.95;1674790;84;21162;-72
2022/02/11 12:20:03;;;;;;;12.58;9.63;;;;;;;9.10;57.11;100127.50;1700375;82;21460;-70
2022/02/11 12:22:31;;;;;;;12.28;9.63;;;;;;;9.05;57.45;100138.02;1695127;83;21128;-71
2022/02/11 12:27:49;;;;;;;15.43;11.70;;;;;;;8.94;58.15;100133.58;1693838;83;21455;-73
2022/02/11 12:30:22;;;;;;;12.98;10.50;;;;;;;8.89;58.58;100150.22;1685172;83;21400;-72
2022/02/11 12:32:56;;;;;;;14.98;10.85;;;;;;;8.86;58.83;100144.69;1705950;82;20977;-70
2022/02/11 12:35:30;;;;;;;13.67;10.43;;;;;;;8.91;59.18;100146.98;1686864;83;21067;-72
2022/02/11 12:38:00;;;;;;;15.23;11.57;;;;;;;9.01;59.06;100148.45;1690947;83;21809;-72
2022/02/11 12:40:33;;;;;;;15.53;11.68;;;;;;;9.08;59.00;100150.98;1685575;85;21032;-71
2022/02/11 12:43:05;;;;;;;14.35;11.28;;;;;;;9.10;58.85;100153.01;1658922;85;21068;-70
2022/02/11 12:45:42;;;;;;;14.28;11.70;;;;;;;9.14;58.99;100151.80;1711120;82;20993;-69
2022/02/11 12:48:13;;;;;;;15.58;11.55;;;;;;;9.16;58.79;100150.72;1687576;84;20965;-70
2022/02/11 12:50:43;;;;;;;16.05;12.30;;;;;;;9.16;58.76;100155.99;1667093;84;21833;-69
2022/02/11 12:53:12;;;;;;;15.38;12.45;;;;;;;9.12;58.69;100160.31;1693719;84;21432;-71
2022/02/11 12:55:39;;;;;;;15.05;11.38;;;;;;;9.02;58.77;100160.17;1693257;83;21023;-72
2022/02/11 12:58:08;;;;;;;13.90;11.43;;;;;;;8.95;59.01;100162.91;1710378;83;21132;-71
2022/02/11 13:00:41;;;;;;;17.50;12.00;;;;;;;8.88;59.10;100170.45;1714808;83;20959;-70
2022/02/11 13:03:11;;;;;;;16.15;11.33;;;;;;;8.81;59.37;100172.34;1703267;83;21839;-71
2022/02/11 13:05:49;;;;;;;15.53;12.98;;;;;;;8.68;59.64;100172.41;1702724;83;21026;-71
2022/02/11 13:08:28;;;;;;;15.53;12.10;;;;;;;8.58;59.78;100176.20;1718636;83;21050;-72
2022/02/11 13:10:58;;;;;;;15.75;13.05;;;;;;;8.52;60.14;100176.67;1702874;83;20991;-76
2022/02/11 13:13:25;;;;;;;16.95;13.25;;;;;;;8.45;60.33;100179.86;1700409;83;20964;-72
2022/02/11 13:15:56;;;;;;;15.53;12.35;;;;;;;8.40;60.61;100189.42;1720097;83;21818;-73
2022/02/11 13:18:24;;;;;;;19.32;12.85;;;;;;;8.35;60.83;100193.33;1697857;83;21513;-74
2022/02/11 13:20:57;;;;;;;16.05;12.90;;;;;;;8.32;60.98;100200.48;1692677;83;21046;-73
2022/02/11 13:23:25;;;;;;;13.10;10.15;;;;;;;8.26;61.27;100200.91;1703096;83;20995;-73
2022/02/11 13:25:54;;;;;;;17.32;13.60;;;;;;;8.21;61.41;100211.42;1698192;83;21022;-73
2022/02/11 13:28:24;;;;;;;15.38;12.98;;;;;;;8.15;61.59;100217.95;1693867;83;22548;-72
2022/02/11 13:31:00;;;;;;;16.42;13.40;;;;;;;8.07;61.72;100214.19;1682506;85;21083;-72
2022/02/11 13:33:35;;;;;;;16.05;13.25;;;;;;;7.94;62.16;100217.70;1690955;83;21030;-71
2022/02/11 13:36:08;;;;;;;15.53;13.93;;;;;;;7.87;62.29;100215.60;1685472;83;39391;-69
2022/02/11 13:38:38;;;;;;;16.85;12.98;;;;;;;7.89;62.39;100215.85;1692171;83;21030;-73
2022/02/11 13:41:11;;;;;;;16.52;13.50;;;;;;;7.92;62.38;100222.23;1700741;83;20975;-70
2022/02/11 13:43:57;;;;;;;16.65;13.83;;;;;;;7.89;62.50;100221.11;1714024;83;21055;-69
2022/02/11 13:46:34;;;;;;;16.10;13.20;;;;;;;7.81;62.59;100224.75;1714056;83;21058;-69
2022/02/11 13:49:15;;;;;;;16.70;14.23;;;;;;;7.75;62.78;100223.88;1690286;85;21081;-72
2022/02/11 13:51:43;;;;;;;16.30;13.38;;;;;;;7.69;62.89;100216.41;1693418;83;21544;-69
2022/02/11 13:54:17;;;;;;;16.73;13.35;;;;;;;7.67;63.10;100219.16;1690671;83;22447;-72
2022/02/11 13:56:46;;;;;;;17.67;13.78;;;;;;;7.66;63.26;100220.58;1695726;83;21434;-70
2022/02/11 13:59:23;;;;;;;16.15;13.13;;;;;;;7.64;63.32;100218.55;1704015;83;21070;-69
2022/02/11 14:01:47;;;;;;;13.47;10.37;;;;;;;7.62;63.46;100226.98;1683217;83;21090;-73
2022/02/11 14:04:22;;;;;;;16.35;13.05;;;;;;;7.59;63.51;100235.93;1686650;83;21513;-70
2022/02/11 14:06:56;;;;;;;18.12;14.13;;;;;;;7.57;63.59;100235.67;1690242;83;21066;-71
2022/02/11 14:09:36;;;;;;;17.55;13.95;;;;;;;7.53;63.63;100235.06;1715040;83;21057;-72
2022/02/11 14:12:06;;;;;;;15.48;11.90;;;;;;;7.49;63.72;100244.55;1700401;83;21441;-70
2022/02/11 14:14:34;;;;;;;16.70;13.80;;;;;;;7.45;63.76;100251.34;1718946;83;21429;-70
2022/02/11 14:17:02;;;;;;;15.80;12.82;;;;;;;7.42;63.79;100246.75;1719086;83;21104;-71
2022/02/11 14:19:30;;;;;;;16.37;13.20;;;;;;;7.40;63.83;100250.80;1706981;83;22336;-71
2022/02/11 14:21:59;;;;;;;17.95;14.07;;;;;;;7.39;63.85;100249.12;1704153;83;21082;-72
2022/02/11 14:24:27;;;;;;;16.77;13.70;;;;;;;7.37;63.99;100251.02;1691565;83;21042;-70
2022/02/11 14:26:54;;;;;;;17.30;13.80;;;;;;;7.35;64.00;100250.77;1697196;83;21053;-71
2022/02/11 14:29:21;;;;;;;18.55;13.95;;;;;;;7.33;64.04;100252.63;1700519;83;21080;-71
2022/02/11 14:31:48;;;;;;;17.02;13.48;;;;;;;7.31;64.08;100255.37;1703909;83;21805;-70
2022/02/11 14:34:15;;;;;;;17.23;13.35;;;;;;;7.30;64.15;100257.63;1690853;83;21061;-70
2022/02/11 14:36:42;;;;;;;17.52;13.35;;;;;;;7.26;64.18;100250.91;1691076;84;21070;-70
2022/02/11 14:39:13;;;;;;;16.95;14.03;;;;;;;7.23;64.27;100252.89;1698143;83;21524;-71
2022/02/11 14:41:47;;;;;;;20.30;13.90;;;;;;;7.21;64.30;100252.16;1704768;83;21149;-70
2022/02/11 14:44:23;;;;;;;15.68;13.28;;;;;;;7.17;64.36;100253.69;1702534;83;21870;-71
2022/02/11 14:46:53;;;;;;;15.32;12.68;;;;;;;7.14;64.43;100259.16;1713646;83;21069;-70
2022/02/11 14:49:20;;;;;;;16.60;13.48;;;;;;;7.11;64.55;100266.38;1695825;83;21038;-71
2022/02/11 14:51:49;;;;;;;19.73;14.05;;;;;;;7.10;64.55;100270.79;1714318;83;21094;-71
2022/02/11 14:54:16;;;;;;;17.37;13.98;;;;;;;7.10;64.56;100270.79;1716471;83;21521;-72
2022/02/11 14:56:44;;;;;;;17.90;14.13;;;;;;;7.12;64.56;100271.52;1716488;83;21978;-72
2022/02/11 14:59:10;;;;;;;17.62;13.28;;;;;;;7.12;64.54;100271.52;1719477;83;21026;-70
2022/02/11 15:01:43;;;;;;;17.92;13.20;;;;;;;7.09;64.46;100274.36;1707928;83;21061;-73
2022/02/11 15:04:10;;;;;;;16.80;13.03;;;;;;;7.03;64.49;100273.92;1704472;83;21074;-72
2022/02/11 15:06:37;;;;;;;16.17;12.95;;;;;;;6.99;64.53;100279.86;1719890;83;21117;-71
2022/02/11 15:09:05;;;;;;;19.55;13.18;;;;;;;6.97;64.56;100280.44;1705509;83;21831;-72